createdAt,value
2018-04-19T00:00:37.373Z,0.00
2018-04-19T00:01:37.803Z,0.00
2018-04-19T00:03:40.152Z,0.00
2018-04-19T00:04:32.876Z,0.00
2018-04-19T00:06:39.712Z,0.00
2018-04-19T00:07:28.899Z,0.00
2018-04-19T00:13:47.647Z,0.00
2018-04-19T00:14:12.735Z,0.00
2018-04-19T00:16:15.055Z,0.00
2018-04-19T00:18:43.176Z,0.00
2018-04-19T00:21:15.526Z,0.00
2018-04-19T00:21:37.182Z,0.00
2018-04-19T00:23:31.750Z,0.00
2018-04-19T00:24:32.211Z,0.00
2018-04-19T00:26:26.758Z,0.00
2018-04-19T00:30:25.836Z,0.00
2018-04-19T00:31:15.020Z,0.00
2018-04-19T00:35:15.932Z,0.00
2018-04-19T00:39:09.711Z,0.00
2018-04-19T00:39:51.876Z,0.00
2018-04-19T00:41:49.783Z,0.00
2018-04-19T00:42:46.962Z,0.00
2018-04-19T00:44:41.525Z,0.00
2018-04-19T00:46:59.014Z,0.00
2018-04-19T00:49:11.164Z,0.00
2018-04-19T00:52:59.968Z,0.00
2018-04-19T00:54:01.396Z,0.00
2018-04-19T00:55:54.955Z,0.00
2018-04-19T00:56:55.389Z,0.00
2018-04-19T01:00:23.043Z,0.00
2018-04-19T01:03:09.033Z,0.00
2018-04-19T01:03:38.313Z,0.00
2018-04-19T01:12:24.575Z,0.00
2018-04-19T01:12:45.706Z,0.00
2018-04-19T01:16:32.983Z,0.00
2018-04-19T01:22:07.063Z,0.00
2018-04-19T01:22:35.743Z,0.00
2018-04-19T01:25:20.549Z,0.00
2018-04-19T01:26:09.740Z,0.00
2018-04-19T01:27:10.155Z,0.00
2018-04-19T01:28:10.585Z,0.00
2018-04-19T01:29:11.024Z,0.00
2018-04-19T01:30:11.463Z,0.00
2018-04-19T01:31:11.890Z,0.00
2018-04-19T01:32:12.331Z,0.00
2018-04-19T01:33:12.763Z,0.00
2018-04-19T01:34:13.184Z,0.00
2018-04-19T01:35:13.620Z,0.00
2018-04-19T01:36:14.063Z,0.00
2018-04-19T01:37:14.542Z,0.00
2018-04-19T01:38:14.924Z,0.00
2018-04-19T01:39:15.370Z,0.00
2018-04-19T01:40:15.786Z,0.00
2018-04-19T01:41:16.217Z,0.00
2018-04-19T01:42:16.659Z,0.00
2018-04-19T01:43:17.084Z,0.00
2018-04-19T01:44:17.765Z,0.00
2018-04-19T01:45:17.946Z,0.00
2018-04-19T01:46:18.385Z,0.00
2018-04-19T01:47:18.813Z,0.00
2018-04-19T01:48:19.447Z,0.00
2018-04-19T01:49:19.678Z,0.00
2018-04-19T01:50:20.111Z,0.00
2018-04-19T01:51:20.547Z,0.00
2018-04-19T01:52:21.028Z,0.00
2018-04-19T01:53:21.417Z,0.00
2018-04-19T01:54:21.854Z,0.00
2018-04-19T01:55:22.276Z,0.00
2018-04-19T01:56:22.707Z,0.00
2018-04-19T01:57:23.149Z,0.00
2018-04-19T01:58:23.717Z,0.00
2018-04-19T01:59:24.003Z,0.00
2018-04-19T02:00:24.440Z,0.00
2018-04-19T02:01:24.878Z,0.00
2018-04-19T02:02:25.635Z,0.00
2018-04-19T02:03:25.740Z,0.00
2018-04-19T02:04:26.180Z,0.00
2018-04-19T02:05:26.599Z,0.00
2018-04-19T02:06:27.037Z,0.00
2018-04-19T02:07:27.470Z,0.00
2018-04-19T02:08:27.901Z,0.00
2018-04-19T02:09:28.334Z,0.00
2018-04-19T02:10:28.791Z,0.00
2018-04-19T02:11:29.196Z,0.00
2018-04-19T02:12:29.626Z,0.00
2018-04-19T02:14:06.046Z,0.00
2018-04-19T02:16:03.587Z,0.00
2018-04-19T02:17:04.017Z,0.00
2018-04-19T02:18:58.575Z,0.00
2018-04-19T02:19:59.003Z,0.00
2018-04-19T02:23:28.605Z,0.00
2018-04-19T02:27:16.445Z,0.00
2018-04-19T02:29:32.118Z,0.00
2018-04-19T02:30:32.550Z,0.00
2018-04-19T02:32:28.108Z,0.00
2018-04-19T02:33:28.535Z,0.00
2018-04-19T02:35:38.444Z,0.00
2018-04-19T02:36:24.519Z,0.00
2018-04-19T02:40:15.936Z,0.00
2018-04-19T02:40:52.631Z,0.00
2018-04-19T02:42:48.180Z,0.00
2018-04-19T02:43:48.614Z,0.00
2018-04-19T02:45:44.155Z,0.00
2018-04-19T02:46:44.609Z,0.00
2018-04-19T02:48:40.159Z,0.00
2018-04-19T02:53:09.201Z,0.00
2018-04-19T02:53:30.366Z,0.00
2018-04-19T02:55:24.904Z,0.00
2018-04-19T02:56:25.333Z,0.00
2018-04-19T02:57:25.768Z,0.00
2018-04-19T02:58:26.195Z,0.00
2018-04-19T02:59:26.646Z,0.00
2018-04-19T03:00:27.064Z,0.00
2018-04-19T03:01:27.496Z,0.00
2018-04-19T03:02:27.947Z,0.00
2018-04-19T03:04:04.201Z,0.00
2018-04-19T03:04:28.791Z,0.00
2018-04-19T03:05:29.229Z,0.00
2018-04-19T03:06:29.657Z,0.00
2018-04-19T03:07:30.083Z,0.00
2018-04-19T03:08:30.527Z,0.00
2018-04-19T03:09:30.960Z,0.00
2018-04-19T03:10:31.390Z,0.00
2018-04-19T03:11:31.897Z,0.00
2018-04-19T03:14:10.620Z,0.00
2018-04-19T03:18:24.471Z,0.00
2018-04-19T03:20:07.903Z,0.00
2018-04-19T03:21:08.342Z,0.00
2018-04-19T03:23:03.913Z,0.00
2018-04-19T03:24:04.312Z,0.00
2018-04-19T03:25:59.367Z,0.00
2018-04-19T03:26:59.810Z,0.00
2018-04-19T03:28:54.405Z,0.00
2018-04-19T03:31:31.231Z,0.00
2018-04-19T03:33:38.609Z,0.00
2018-04-19T03:34:26.065Z,0.00
2018-04-19T03:36:34.078Z,0.00
2018-04-19T03:37:20.244Z,0.00
2018-04-19T03:39:14.810Z,0.00
2018-04-19T03:40:15.242Z,0.00
2018-04-19T03:43:43.877Z,0.00
2018-04-19T03:44:44.301Z,0.00
2018-04-19T03:46:38.882Z,0.00
2018-04-19T03:48:53.603Z,0.00
2018-04-19T03:49:54.024Z,0.00
2018-04-19T03:51:48.602Z,0.00
2018-04-19T03:52:49.046Z,0.00
2018-04-19T03:56:16.720Z,5.63
2018-04-19T03:57:17.163Z,5.63
2018-04-19T03:59:12.218Z,5.63
2018-04-19T04:00:12.644Z,5.63
2018-04-19T04:02:07.221Z,5.63
2018-04-19T04:06:32.765Z,11.25
2018-04-19T04:08:28.002Z,11.25
2018-04-19T04:09:10.174Z,11.25
2018-04-19T04:11:08.016Z,16.88
2018-04-19T04:13:30.279Z,16.88
2018-04-19T04:14:19.945Z,16.88
2018-04-19T04:15:20.372Z,22.50
2018-04-19T04:16:20.811Z,22.50
2018-04-19T04:21:02.696Z,28.13
2018-04-19T04:23:03.354Z,28.13
2018-04-19T04:23:42.581Z,28.13
2018-04-19T04:27:28.524Z,33.75
2018-04-19T04:29:24.977Z,39.38
2018-04-19T04:30:25.405Z,39.38
2018-04-19T04:31:40.703Z,39.38
2018-04-19T04:32:26.276Z,45.00
2018-04-19T04:33:26.705Z,45.00
2018-04-19T04:36:00.256Z,50.63
2018-04-19T04:38:26.237Z,50.63
2018-04-19T04:40:29.817Z,56.25
2018-04-19T04:41:30.241Z,61.88
2018-04-19T04:43:59.581Z,61.88
2018-04-19T04:44:25.249Z,61.88
2018-04-19T04:50:59.351Z,73.13
2018-04-19T04:51:59.512Z,78.75
2018-04-19T04:53:54.111Z,78.75
2018-04-19T04:54:57.330Z,84.38
2018-04-19T04:56:49.112Z,84.38
2018-04-19T04:57:49.535Z,84.38
2018-04-19T05:01:18.182Z,90.00
2018-04-19T05:03:54.072Z,95.63
2018-04-19T05:06:28.912Z,101.25
2018-04-19T05:07:29.350Z,106.88
2018-04-19T05:08:29.758Z,106.88
2018-04-19T05:09:30.199Z,106.88
2018-04-19T05:10:30.629Z,112.50
2018-04-19T05:11:31.061Z,112.50
2018-04-19T05:14:35.869Z,118.13
2018-04-19T05:17:53.391Z,123.75
2018-04-19T05:18:53.817Z,123.75
2018-04-19T05:20:49.420Z,129.38
2018-04-19T05:21:49.849Z,129.38
2018-04-19T05:23:59.681Z,135.00
2018-04-19T05:24:46.742Z,135.00
2018-04-19T05:26:55.670Z,135.00
2018-04-19T05:29:22.392Z,140.63
2018-04-19T05:29:56.548Z,146.25
2018-04-19T05:31:51.125Z,146.25
2018-04-19T05:32:51.560Z,151.88
2018-04-19T05:33:51.987Z,151.88
2018-04-19T05:34:52.468Z,157.50
2018-04-19T05:35:52.913Z,157.50
2018-04-19T05:36:53.291Z,157.50
2018-04-19T05:37:53.719Z,157.50
2018-04-19T05:38:54.159Z,163.13
2018-04-19T05:39:54.610Z,163.13
2018-04-19T05:40:55.018Z,168.75
2018-04-19T05:41:55.485Z,168.75
2018-04-19T05:42:55.895Z,174.38
2018-04-19T05:43:56.330Z,174.38
2018-04-19T05:44:56.762Z,174.38
2018-04-19T05:45:57.194Z,180.00
2018-04-19T05:46:57.616Z,180.00
2018-04-19T05:47:58.055Z,180.00
2018-04-19T05:48:58.497Z,180.00
2018-04-19T05:49:58.917Z,180.00
2018-04-19T05:50:59.361Z,185.63
2018-04-19T05:51:59.798Z,185.63
2018-04-19T05:53:00.220Z,191.25
2018-04-19T05:54:00.671Z,191.25
2018-04-19T05:55:01.093Z,191.25
2018-04-19T05:56:01.527Z,196.88
2018-04-19T05:57:01.968Z,196.88
2018-04-19T05:58:02.480Z,196.88
2018-04-19T05:59:02.829Z,202.50
2018-04-19T06:00:03.258Z,202.50
2018-04-19T06:01:03.690Z,208.13
2018-04-19T06:02:04.130Z,208.13
2018-04-19T06:03:04.611Z,208.13
2018-04-19T06:04:04.996Z,219.38
2018-04-19T06:05:05.432Z,213.75
2018-04-19T06:06:05.878Z,219.38
2018-04-19T06:07:06.299Z,219.38
2018-04-19T06:08:06.751Z,225.00
2018-04-19T06:09:07.188Z,225.00
2018-04-19T06:10:07.615Z,230.63
2018-04-19T06:11:08.041Z,230.63
2018-04-19T06:12:08.477Z,230.63
2018-04-19T06:13:08.910Z,236.25
2018-04-19T06:14:09.348Z,236.25
2018-04-19T06:15:09.793Z,241.88
2018-04-19T06:16:10.218Z,241.88
2018-04-19T06:17:10.662Z,247.50
2018-04-19T06:18:11.094Z,247.50
2018-04-19T06:19:11.531Z,253.13
2018-04-19T06:20:11.965Z,253.13
2018-04-19T06:21:12.395Z,258.75
2018-04-19T06:22:13.285Z,258.75
2018-04-19T06:23:13.512Z,264.38
2018-04-19T06:24:13.854Z,264.38
2018-04-19T06:25:14.370Z,270.00
2018-04-19T06:26:14.633Z,270.00
2018-04-19T06:27:15.236Z,275.63
2018-04-19T06:28:15.591Z,275.63
2018-04-19T06:29:15.887Z,281.25
2018-04-19T06:30:16.377Z,281.25
2018-04-19T06:31:16.757Z,286.88
2018-04-19T06:32:17.193Z,286.88
2018-04-19T06:33:17.630Z,292.50
2018-04-19T06:34:18.067Z,292.50
2018-04-19T06:35:18.510Z,298.13
2018-04-19T06:36:18.944Z,298.13
2018-04-19T06:37:19.472Z,303.75
2018-04-19T06:38:19.818Z,303.75
2018-04-19T06:39:20.254Z,303.75
2018-04-19T06:40:20.695Z,309.38
2018-04-19T06:41:21.124Z,315.00
2018-04-19T06:42:21.560Z,315.00
2018-04-19T06:43:22.026Z,315.00
2018-04-19T06:44:22.437Z,320.63
2018-04-19T06:45:22.880Z,326.25
2018-04-19T06:46:23.312Z,337.50
2018-04-19T06:47:23.750Z,343.13
2018-04-19T06:48:24.189Z,348.75
2018-04-19T06:49:24.631Z,354.38
2018-04-19T06:50:25.060Z,360.00
2018-04-19T06:51:25.500Z,365.63
2018-04-19T06:52:25.938Z,371.25
2018-04-19T06:53:26.378Z,371.25
2018-04-19T06:54:26.822Z,382.50
2018-04-19T06:55:27.251Z,388.13
2018-04-19T06:56:27.690Z,393.75
2018-04-19T06:57:28.127Z,399.38
2018-04-19T06:58:28.567Z,405.00
2018-04-19T06:59:29.005Z,410.63
2018-04-19T07:00:29.444Z,416.25
2018-04-19T07:01:29.889Z,421.88
2018-04-19T07:02:30.322Z,421.88
2018-04-19T07:03:30.762Z,427.50
2018-04-19T07:04:31.198Z,427.50
2018-04-19T07:05:31.642Z,433.13
2018-04-19T07:06:34.969Z,433.13
2018-04-19T07:07:32.520Z,438.75
2018-04-19T07:08:32.959Z,438.75
2018-04-19T07:09:33.402Z,450.00
2018-04-19T07:10:33.843Z,450.00
2018-04-19T07:11:34.286Z,455.63
2018-04-19T07:12:34.723Z,466.88
2018-04-19T07:13:35.164Z,472.50
2018-04-19T07:14:35.625Z,478.13
2018-04-19T07:15:36.048Z,483.75
2018-04-19T07:16:36.482Z,495.00
2018-04-19T07:17:36.924Z,500.63
2018-04-19T07:18:37.368Z,506.25
2018-04-19T07:19:37.803Z,511.88
2018-04-19T07:20:38.248Z,523.13
2018-04-19T07:21:38.688Z,523.13
2018-04-19T07:22:39.147Z,523.13
2018-04-19T07:23:39.578Z,556.88
2018-04-19T07:24:40.014Z,545.63
2018-04-19T07:25:40.458Z,551.25
2018-04-19T07:26:40.905Z,556.88
2018-04-19T07:27:41.339Z,562.50
2018-04-19T07:28:41.787Z,562.50
2018-04-19T07:29:42.226Z,579.38
2018-04-19T07:30:42.673Z,573.75
2018-04-19T07:31:43.116Z,585.00
2018-04-19T07:32:43.557Z,596.25
2018-04-19T07:33:44.012Z,601.88
2018-04-19T07:35:12.441Z,607.50
2018-04-19T07:35:59.429Z,618.75
2018-04-19T07:36:45.339Z,630.00
2018-04-19T07:37:45.792Z,652.50
2018-04-19T07:38:46.237Z,736.88
2018-04-19T07:39:46.689Z,1226.25
2018-04-19T07:40:47.128Z,1828.13
2018-04-19T07:41:47.576Z,2086.88
2018-04-19T07:42:48.026Z,2098.13
2018-04-19T07:43:48.476Z,2081.25
2018-04-19T07:44:48.924Z,2120.63
2018-04-19T07:45:49.374Z,2193.75
2018-04-19T07:46:49.825Z,2137.50
2018-04-19T07:47:50.334Z,2086.88
2018-04-19T07:48:50.836Z,2086.88
2018-04-19T07:49:57.985Z,1968.75
2018-04-19T07:50:51.644Z,1822.50
2018-04-19T07:52:13.255Z,1968.75
2018-04-19T07:52:52.585Z,1895.63
2018-04-19T07:53:52.995Z,1895.63
2018-04-19T07:54:53.455Z,2098.13
2018-04-19T07:55:53.899Z,2227.50
2018-04-19T07:56:54.354Z,2238.75
2018-04-19T07:57:54.866Z,2199.38
2018-04-19T07:58:55.265Z,2137.50
2018-04-19T08:01:28.884Z,1929.38
2018-04-19T08:02:29.308Z,1861.88
2018-04-19T08:04:23.943Z,1878.75
2018-04-19T08:05:24.416Z,1906.88
2018-04-19T08:07:27.469Z,2058.75
2018-04-19T08:08:19.557Z,2205.00
2018-04-19T08:10:15.045Z,2581.88
2018-04-19T08:11:15.530Z,2418.75
2018-04-19T08:13:10.547Z,2514.38
2018-04-19T08:14:11.001Z,2525.63
2018-04-19T08:15:11.526Z,2486.25
2018-04-19T08:16:11.919Z,2430.00
2018-04-19T08:17:12.381Z,2368.13
2018-04-19T08:18:12.839Z,2289.38
2018-04-19T08:19:13.302Z,2227.50
2018-04-19T08:20:13.762Z,2233.13
2018-04-19T08:21:14.221Z,2261.25
2018-04-19T08:22:14.750Z,2328.75
2018-04-19T08:23:15.153Z,2418.75
2018-04-19T08:24:15.607Z,2469.38
2018-04-19T08:25:16.072Z,2520.00
2018-04-19T08:26:16.529Z,2581.88
2018-04-19T08:27:17.818Z,2615.63
2018-04-19T08:28:17.459Z,2626.88
2018-04-19T08:29:17.923Z,2581.88
2018-04-19T08:30:18.382Z,2570.63
2018-04-19T08:31:18.849Z,2548.13
2018-04-19T08:32:19.313Z,2610.00
2018-04-19T08:33:19.772Z,2531.25
2018-04-19T08:34:34.824Z,2340.00
2018-04-19T08:35:20.702Z,2148.75
2018-04-19T08:36:21.164Z,2075.63
2018-04-19T08:37:21.633Z,2604.38
2018-04-19T08:38:22.096Z,2790.00
2018-04-19T08:39:22.554Z,2750.63
2018-04-19T08:40:23.030Z,2812.50
2018-04-19T08:41:23.490Z,2806.88
2018-04-19T08:42:24.001Z,2756.25
2018-04-19T08:43:24.422Z,2581.88
2018-04-19T08:44:39.884Z,2475.00
2018-04-19T08:45:25.357Z,2508.75
2018-04-19T08:46:25.819Z,2565.00
2018-04-19T08:47:26.289Z,2581.88
2018-04-19T08:48:41.338Z,2587.50
2018-04-19T08:49:27.224Z,2525.63
2018-04-19T08:50:27.681Z,2497.50
2018-04-19T08:51:28.159Z,2463.75
2018-04-19T08:52:35.346Z,2475.00
2018-04-19T08:53:29.085Z,2497.50
2018-04-19T08:54:29.560Z,2536.88
2018-04-19T08:56:51.654Z,2677.50
2018-04-19T08:57:30.952Z,2716.88
2018-04-19T09:00:07.867Z,2671.88
2018-04-19T09:01:05.037Z,2626.88
2018-04-19T09:02:05.510Z,2626.88
2018-04-19T09:03:05.976Z,2739.38
2018-04-19T09:04:06.446Z,2728.13
2018-04-19T09:05:06.929Z,2430.00
2018-04-19T09:06:07.431Z,2581.88
2018-04-19T09:07:07.851Z,2671.88
2018-04-19T09:08:08.334Z,2638.13
2018-04-19T09:09:08.789Z,2739.38
2018-04-19T09:10:09.251Z,2823.75
2018-04-19T09:11:09.724Z,2885.63
2018-04-19T09:12:10.208Z,2885.63
2018-04-19T09:13:10.666Z,2694.38
2018-04-19T09:14:11.135Z,2565.00
2018-04-19T09:15:11.604Z,2745.00
2018-04-19T09:16:12.084Z,2806.88
2018-04-19T09:17:12.568Z,2790.00
2018-04-19T09:18:13.018Z,2846.25
2018-04-19T09:19:13.485Z,2913.75
2018-04-19T09:20:13.952Z,2930.63
2018-04-19T09:21:14.429Z,2688.75
2018-04-19T09:22:14.924Z,2756.25
2018-04-19T09:23:15.377Z,2660.63
2018-04-19T09:24:15.840Z,2694.38
2018-04-19T09:25:16.312Z,2733.75
2018-04-19T09:26:16.789Z,2857.50
2018-04-19T09:27:17.289Z,2908.13
2018-04-19T09:28:17.731Z,2941.88
2018-04-19T09:29:18.208Z,2891.25
2018-04-19T09:30:18.667Z,2896.88
2018-04-19T09:31:19.139Z,2880.00
2018-04-19T09:32:20.343Z,2863.13
2018-04-19T09:33:20.096Z,2851.88
2018-04-19T09:34:20.554Z,2863.13
2018-04-19T09:35:21.019Z,2716.88
2018-04-19T09:36:21.491Z,1805.63
2018-04-19T09:37:21.961Z,1316.25
2018-04-19T09:38:23.332Z,2154.38
2018-04-19T09:39:22.904Z,2812.50
2018-04-19T09:40:23.378Z,2947.50
2018-04-19T09:41:23.849Z,2953.13
2018-04-19T09:42:24.321Z,2908.13
2018-04-19T09:43:24.802Z,2829.38
2018-04-19T09:44:25.270Z,2778.75
2018-04-19T09:45:25.741Z,2632.50
2018-04-19T09:46:26.210Z,2677.50
2018-04-19T09:47:26.686Z,2621.25
2018-04-19T09:48:27.161Z,2705.63
2018-04-19T09:49:27.628Z,2778.75
2018-04-19T09:50:28.104Z,2728.13
2018-04-19T09:51:28.579Z,2998.13
2018-04-19T09:52:29.076Z,3003.75
2018-04-19T09:53:29.522Z,3031.88
2018-04-19T09:54:29.991Z,2981.25
2018-04-19T09:55:30.466Z,3037.50
2018-04-19T09:56:30.942Z,2902.50
2018-04-19T09:57:31.413Z,2941.88
2018-04-19T09:58:31.888Z,2902.50
2018-04-19T09:59:32.355Z,2964.38
2018-04-19T10:00:32.824Z,2936.25
2018-04-19T10:01:33.305Z,2964.38
2018-04-19T10:02:33.770Z,3043.13
2018-04-19T10:03:34.247Z,2986.88
2018-04-19T10:04:34.725Z,2936.25
2018-04-19T10:05:35.192Z,3065.63
2018-04-19T10:06:35.701Z,2964.38
2018-04-19T10:07:36.136Z,3020.63
2018-04-19T10:08:36.617Z,3127.50
2018-04-19T10:09:37.086Z,3150.00
2018-04-19T10:10:37.560Z,2868.75
2018-04-19T10:11:38.030Z,2497.50
2018-04-19T10:12:38.510Z,3009.38
2018-04-19T10:13:38.977Z,3138.75
2018-04-19T10:14:39.462Z,3105.00
2018-04-19T10:15:39.924Z,3048.75
2018-04-19T10:16:40.399Z,2992.50
2018-04-19T10:17:40.878Z,3003.75
2018-04-19T10:18:41.347Z,3003.75
2018-04-19T10:19:41.821Z,3020.63
2018-04-19T10:20:42.295Z,3003.75
2018-04-19T10:21:42.773Z,2902.50
2018-04-19T10:22:43.252Z,2953.13
2018-04-19T10:23:43.718Z,2683.13
2018-04-19T10:24:44.191Z,1698.75
2018-04-19T10:25:44.671Z,928.13
2018-04-19T10:26:45.147Z,866.25
2018-04-19T10:27:45.615Z,826.88
2018-04-19T10:28:46.086Z,810.00
2018-04-19T10:29:46.566Z,804.38
2018-04-19T10:30:47.042Z,815.63
2018-04-19T10:31:47.512Z,843.75
2018-04-19T10:32:47.980Z,905.63
2018-04-19T10:33:48.481Z,1479.38
2018-04-19T10:34:48.932Z,2525.63
2018-04-19T10:35:49.403Z,2801.25
2018-04-19T10:36:49.877Z,2801.25
2018-04-19T10:37:50.344Z,2773.13
2018-04-19T10:38:50.823Z,2705.63
2018-04-19T10:39:51.302Z,2806.88
2018-04-19T10:40:51.765Z,2880.00
2018-04-19T10:41:52.236Z,2812.50
2018-04-19T10:42:52.725Z,2896.88
2018-04-19T10:43:53.186Z,2930.63
2018-04-19T10:44:53.653Z,2975.63
2018-04-19T10:45:54.131Z,2913.75
2018-04-19T10:46:54.599Z,2829.38
2018-04-19T10:47:55.082Z,2806.88
2018-04-19T10:48:55.545Z,2373.75
2018-04-19T10:49:56.020Z,2413.13
2018-04-19T10:50:56.493Z,2958.75
2018-04-19T10:51:56.968Z,3065.63
2018-04-19T10:52:57.433Z,3043.13
2018-04-19T10:53:57.907Z,2913.75
2018-04-19T10:54:58.388Z,2761.88
2018-04-19T10:55:58.853Z,2660.63
2018-04-19T10:56:59.322Z,2705.63
2018-04-19T10:57:59.804Z,2784.38
2018-04-19T10:59:00.277Z,2840.63
2018-04-19T11:00:00.742Z,2981.25
2018-04-19T11:01:01.241Z,3031.88
2018-04-19T11:02:01.695Z,3060.00
2018-04-19T11:03:02.166Z,3031.88
2018-04-19T11:04:02.640Z,3121.88
2018-04-19T11:05:03.120Z,3060.00
2018-04-19T11:06:03.581Z,2919.38
2018-04-19T11:07:04.059Z,2970.00
2018-04-19T11:08:04.535Z,3009.38
2018-04-19T11:09:05.000Z,2947.50
2018-04-19T11:10:05.477Z,3020.63
2018-04-19T11:11:05.952Z,3020.63
2018-04-19T11:12:06.431Z,2992.50
2018-04-19T11:13:06.898Z,2958.75
2018-04-19T11:14:07.374Z,2975.63
2018-04-19T11:15:07.848Z,2891.25
2018-04-19T11:16:08.321Z,2846.25
2018-04-19T11:17:08.800Z,2739.38
2018-04-19T11:18:09.274Z,2694.38
2018-04-19T11:19:09.762Z,2716.88
2018-04-19T11:20:10.222Z,2688.75
2018-04-19T11:21:10.706Z,2694.38
2018-04-19T11:22:11.176Z,2778.75
2018-04-19T11:23:11.654Z,2649.38
2018-04-19T11:24:12.122Z,1805.63
2018-04-19T11:25:12.600Z,1192.50
2018-04-19T11:26:13.083Z,1856.25
2018-04-19T11:27:13.547Z,2446.88
2018-04-19T11:28:14.034Z,2565.00
2018-04-19T11:29:14.502Z,2638.13
2018-04-19T11:30:14.977Z,2891.25
2018-04-19T11:31:15.453Z,2981.25
2018-04-19T11:32:15.970Z,3015.00
2018-04-19T11:33:16.441Z,3093.75
2018-04-19T11:34:16.881Z,3065.63
2018-04-19T11:35:17.351Z,3110.63
2018-04-19T11:36:17.824Z,3161.25
2018-04-19T11:37:18.301Z,2975.63
2018-04-19T11:38:18.776Z,1423.13
2018-04-19T11:39:19.248Z,489.38
2018-04-19T11:40:19.724Z,466.88
2018-04-19T11:41:20.194Z,466.88
2018-04-19T11:42:20.669Z,444.38
2018-04-19T11:43:21.132Z,444.38
2018-04-19T11:44:21.608Z,438.75
2018-04-19T11:45:22.067Z,433.13
2018-04-19T11:46:22.538Z,427.50
2018-04-19T11:47:23.006Z,421.88
2018-04-19T11:48:23.470Z,421.88
2018-04-19T11:49:23.930Z,416.25
2018-04-19T11:50:24.393Z,416.25
2018-04-19T11:51:24.853Z,410.63
2018-04-19T11:52:25.313Z,416.25
2018-04-19T11:53:25.771Z,410.63
2018-04-19T11:54:26.233Z,405.00
2018-04-19T11:55:26.689Z,405.00
2018-04-19T11:56:27.147Z,405.00
2018-04-19T11:57:27.607Z,405.00
2018-04-19T11:58:28.058Z,399.38
2018-04-19T11:59:28.564Z,399.38
2018-04-19T12:00:28.975Z,399.38
2018-04-19T12:01:29.427Z,399.38
2018-04-19T12:02:29.883Z,393.75
2018-04-19T12:03:30.331Z,388.13
2018-04-19T12:04:30.786Z,382.50
2018-04-19T12:05:31.239Z,382.50
2018-04-19T12:06:31.692Z,382.50
2018-04-19T12:07:32.159Z,388.13
2018-04-19T12:08:32.599Z,382.50
2018-04-19T12:09:33.047Z,382.50
2018-04-19T12:10:33.504Z,382.50
2018-04-19T12:11:33.956Z,382.50
2018-04-19T12:12:34.405Z,376.88
2018-04-19T12:13:34.900Z,376.88
2018-04-19T12:14:35.311Z,376.88
2018-04-19T12:15:35.758Z,382.50
2018-04-19T12:16:36.205Z,376.88
2018-04-19T12:17:36.660Z,371.25
2018-04-19T12:18:37.110Z,371.25
2018-04-19T12:19:37.560Z,371.25
2018-04-19T12:20:38.005Z,365.63
2018-04-19T12:21:38.463Z,365.63
2018-04-19T12:22:38.907Z,371.25
2018-04-19T12:23:39.359Z,354.38
2018-04-19T12:24:39.813Z,354.38
2018-04-19T12:25:40.257Z,354.38
2018-04-19T12:26:40.709Z,354.38
2018-04-19T12:27:41.163Z,354.38
2018-04-19T12:28:41.605Z,354.38
2018-04-19T12:29:42.057Z,354.38
2018-04-19T12:30:42.515Z,348.75
2018-04-19T12:31:42.956Z,348.75
2018-04-19T12:32:43.405Z,348.75
2018-04-19T12:33:43.857Z,348.75
2018-04-19T12:34:44.307Z,343.13
2018-04-19T12:35:44.762Z,343.13
2018-04-19T12:36:45.204Z,337.50
2018-04-19T12:37:45.652Z,337.50
2018-04-19T12:38:46.107Z,331.88
2018-04-19T12:39:46.551Z,331.88
2018-04-19T12:40:47.004Z,331.88
2018-04-19T12:41:47.457Z,320.63
2018-04-19T12:42:47.900Z,320.63
2018-04-19T12:43:48.351Z,320.63
2018-04-19T12:44:48.796Z,320.63
2018-04-19T12:45:49.244Z,326.25
2018-04-19T12:46:49.694Z,320.63
2018-04-19T12:47:50.144Z,315.00
2018-04-19T12:48:50.593Z,309.38
2018-04-19T12:49:51.041Z,309.38
2018-04-19T12:50:51.486Z,309.38
2018-04-19T12:51:51.934Z,303.75
2018-04-19T12:52:52.392Z,303.75
2018-04-19T12:53:52.836Z,303.75
2018-04-19T12:54:53.284Z,298.13
2018-04-19T12:55:53.761Z,298.13
2018-04-19T12:56:54.217Z,298.13
2018-04-19T12:57:54.630Z,298.13
2018-04-19T12:58:55.072Z,292.50
2018-04-19T12:59:55.521Z,292.50
2018-04-19T13:00:55.969Z,286.88
2018-04-19T13:01:56.414Z,292.50
2018-04-19T13:02:56.872Z,286.88
2018-04-19T13:03:57.315Z,286.88
2018-04-19T13:04:57.757Z,281.25
2018-04-19T13:05:58.210Z,281.25
2018-04-19T13:06:58.661Z,281.25
2018-04-19T13:07:59.114Z,281.25
2018-04-19T13:08:59.561Z,281.25
2018-04-19T13:10:00.005Z,281.25
2018-04-19T13:11:00.450Z,281.25
2018-04-19T13:12:00.897Z,275.63
2018-04-19T13:13:01.341Z,270.00
2018-04-19T13:14:01.805Z,270.00
2018-04-19T13:15:02.249Z,275.63
2018-04-19T13:16:02.696Z,270.00
2018-04-19T13:17:03.137Z,270.00
2018-04-19T13:18:03.596Z,264.38
2018-04-19T13:19:04.045Z,264.38
2018-04-19T13:20:04.480Z,258.75
2018-04-19T13:21:04.924Z,264.38
2018-04-19T13:22:05.386Z,264.38
2018-04-19T13:23:05.815Z,264.38
2018-04-19T13:24:06.284Z,264.38
2018-04-19T13:25:06.716Z,264.38
2018-04-19T13:26:07.160Z,264.38
2018-04-19T13:27:07.611Z,264.38
2018-04-19T13:28:08.059Z,258.75
2018-04-19T13:29:08.508Z,258.75
2018-04-19T13:30:08.955Z,258.75
2018-04-19T13:31:09.400Z,258.75
2018-04-19T13:32:09.857Z,258.75
2018-04-19T13:33:10.293Z,253.13
2018-04-19T13:34:10.739Z,247.50
2018-04-19T13:35:11.203Z,253.13
2018-04-19T13:36:11.637Z,253.13
2018-04-19T13:37:12.086Z,258.75
2018-04-19T13:38:12.543Z,258.75
2018-04-19T13:39:12.977Z,258.75
2018-04-19T13:40:13.426Z,253.13
2018-04-19T13:41:13.872Z,258.75
2018-04-19T13:42:14.322Z,258.75
2018-04-19T13:43:14.771Z,253.13
2018-04-19T13:44:15.213Z,258.75
2018-04-19T13:45:15.659Z,258.75
2018-04-19T13:46:16.106Z,253.13
2018-04-19T13:47:16.556Z,247.50
2018-04-19T13:48:17.003Z,258.75
2018-04-19T13:49:17.446Z,258.75
2018-04-19T13:50:17.901Z,258.75
2018-04-19T13:51:18.347Z,253.13
2018-04-19T13:52:18.794Z,247.50
2018-04-19T13:53:19.240Z,253.13
2018-04-19T13:54:19.694Z,247.50
2018-04-19T13:55:20.140Z,241.88
2018-04-19T13:56:20.606Z,247.50
2018-04-19T13:57:21.033Z,247.50
2018-04-19T13:58:21.480Z,247.50
2018-04-19T13:59:21.926Z,247.50
2018-04-19T14:00:22.373Z,241.88
2018-04-19T14:01:22.824Z,247.50
2018-04-19T14:02:23.274Z,247.50
2018-04-19T14:03:23.720Z,241.88
2018-04-19T14:04:24.165Z,241.88
2018-04-19T14:05:24.647Z,241.88
2018-04-19T14:06:25.067Z,241.88
2018-04-19T14:07:25.507Z,241.88
2018-04-19T14:08:25.964Z,241.88
2018-04-19T14:09:26.405Z,241.88
2018-04-19T14:10:26.856Z,241.88
2018-04-19T14:11:27.301Z,236.25
2018-04-19T14:12:27.749Z,236.25
2018-04-19T14:13:28.200Z,236.25
2018-04-19T14:14:28.644Z,236.25
2018-04-19T14:15:29.097Z,230.63
2018-04-19T14:16:29.548Z,230.63
2018-04-19T14:17:29.989Z,219.38
2018-04-19T14:18:30.439Z,225.00
2018-04-19T14:19:30.892Z,225.00
2018-04-19T14:20:31.329Z,225.00
2018-04-19T14:21:31.780Z,230.63
2018-04-19T14:22:32.226Z,225.00
2018-04-19T14:23:32.677Z,225.00
2018-04-19T14:24:33.121Z,225.00
2018-04-19T14:25:33.569Z,225.00
2018-04-19T14:26:34.021Z,225.00
2018-04-19T14:27:34.467Z,219.38
2018-04-19T14:28:34.922Z,208.13
2018-04-19T14:29:35.360Z,225.00
2018-04-19T14:30:35.809Z,219.38
2018-04-19T14:31:36.260Z,219.38
2018-04-19T14:32:36.711Z,219.38
2018-04-19T14:33:37.154Z,213.75
2018-04-19T14:34:37.602Z,213.75
2018-04-19T14:35:38.049Z,213.75
2018-04-19T14:36:38.497Z,213.75
2018-04-19T14:37:38.945Z,219.38
2018-04-19T14:38:39.393Z,219.38
2018-04-19T14:39:39.844Z,219.38
2018-04-19T14:40:40.285Z,219.38
2018-04-19T14:41:40.735Z,213.75
2018-04-19T14:42:41.183Z,208.13
2018-04-19T14:43:41.637Z,213.75
2018-04-19T14:44:42.081Z,213.75
2018-04-19T14:45:42.532Z,202.50
2018-04-19T14:46:42.978Z,208.13
2018-04-19T14:47:43.424Z,213.75
2018-04-19T14:48:43.870Z,208.13
2018-04-19T14:49:44.317Z,208.13
2018-04-19T14:50:44.773Z,208.13
2018-04-19T14:51:45.232Z,202.50
2018-04-19T14:52:45.664Z,202.50
2018-04-19T14:53:46.110Z,196.88
2018-04-19T14:54:46.562Z,191.25
2018-04-19T14:55:47.006Z,191.25
2018-04-19T14:56:47.455Z,191.25